Time;durP1;ratioP1;P1;durP2;ratioP2;P2;SDS_P1;SDS_P2;PMS_P1;PMS_P2;Temp;Humidity;BMP_temperature;BMP_pressure;BME280_temperature;BME280_humidity;BME280_pressure;Samples;Min_cycle;Max_cycle;Signal;HPM_P1;HPM_P2
2022/01/18 00:00:11;;;;;;;;;79.50;60.00;;;;;5.43;72.84;103698.13;5069642;28;49772;-75
2022/01/18 00:02:39;;;;;;;;;76.25;60.75;;;;;5.32;72.69;103698.88;5062994;28;49829;-76
2022/01/18 00:05:12;;;;;;;;;75.75;59.25;;;;;5.28;72.70;103683.75;5038814;28;50055;-75
2022/01/18 00:07:37;;;;;;;;;70.75;56.50;;;;;5.35;72.79;103683.50;5050266;28;50010;-74
2022/01/18 00:10:03;;;;;;;;;74.75;60.75;;;;;5.26;73.20;103690.50;5049954;28;49693;-75
2022/01/18 00:12:43;;;;;;;;;76.25;59.00;;;;;5.14;72.83;103666.00;5070539;28;49739;-75
2022/01/18 00:18:04;;;;;;;;;75.00;60.75;;;;;5.39;72.90;103687.28;5072840;28;50441;-76
2022/01/18 00:23:14;;;;;;;;;69.00;55.50;;;;;5.20;72.23;103676.94;5073080;28;50023;-75
2022/01/18 00:25:47;;;;;;;;;74.75;59.00;;;;;5.38;72.58;103691.59;5073378;28;49648;-75
2022/01/18 00:28:14;;;;;;;;;77.50;62.00;;;;;5.32;72.29;103682.34;5072349;28;50580;-74
2022/01/18 00:35:36;;;;;;;;;76.50;61.00;;;;;5.27;72.51;103668.91;5073018;28;49875;-75
2022/01/18 00:38:11;;;;;;;;;81.00;64.00;;;;;5.09;72.70;103652.53;5072583;28;49735;-75
2022/01/18 00:40:36;;;;;;;;;78.50;61.00;;;;;5.14;72.80;103669.50;5067393;28;49775;-75
2022/01/18 00:43:02;;;;;;;;;72.75;55.75;;;;;5.29;72.23;103687.25;5072564;28;49930;-75
2022/01/18 00:45:27;;;;;;;;;78.50;61.25;;;;;5.13;72.47;103661.56;5054659;28;50760;-76
2022/01/18 00:47:53;;;;;;;;;70.75;58.00;;;;;5.14;72.08;103669.50;5054178;28;52568;-75
2022/01/18 00:50:18;;;;;;;;;66.25;56.50;;;;;5.31;72.47;103698.75;5044614;28;49737;-76
2022/01/18 00:52:49;;;;;;;;;69.67;57.00;;;;;5.09;72.87;103657.75;5051156;28;49930;-76
2022/01/18 00:55:15;;;;;;;;;76.50;60.75;;;;;5.02;72.71;103652.81;5034759;28;50094;-76
2022/01/18 00:57:40;;;;;;;;;66.75;54.50;;;;;5.01;72.37;103656.16;5052463;28;49760;-75
2022/01/18 01:00:06;;;;;;;;;74.25;60.50;;;;;4.98;72.40;103645.47;5052896;28;49749;-75
2022/01/18 01:02:33;;;;;;;;;75.50;62.25;;;;;4.95;71.51;103627.00;5053049;28;49779;-76
2022/01/18 01:04:58;;;;;;;;;76.75;59.75;;;;;5.06;71.54;103662.69;5053072;28;50069;-75
2022/01/18 01:07:24;;;;;;;;;70.00;54.50;;;;;5.18;72.31;103691.50;5034623;28;51210;-75
2022/01/18 01:09:50;;;;;;;;;75.75;60.75;;;;;5.06;72.18;103670.50;5052462;28;49803;-75
2022/01/18 01:12:18;;;;;;;;;67.75;54.00;;;;;5.12;72.93;103684.09;5054706;28;50403;-76
2022/01/18 01:14:45;;;;;;;;;66.00;53.75;;;;;4.97;72.63;103669.69;5052737;28;49696;-76
2022/01/18 01:32:00;;;;;;;;;70.25;57.00;;;;;4.90;72.91;103664.69;5052678;28;49664;-75
2022/01/18 01:36:11;;;;;;;;;61.25;48.75;;;;;4.69;73.07;103674.09;5052703;28;49992;-76
2022/01/18 01:44:55;;;;;;;;;59.50;44.00;;;;;4.54;73.57;103680.50;5080684;28;49665;-75
2022/01/18 01:46:54;;;;;;;;;48.00;38.50;;;;;4.60;73.90;103683.66;5065645;28;50748;-75
2022/01/18 01:49:22;;;;;;;;;48.00;42.50;;;;;4.45;73.31;103648.44;5071568;28;50266;-75
2022/01/18 01:51:48;;;;;;;;;52.25;44.00;;;;;4.57;73.71;103673.88;5053500;28;49841;-76
2022/01/18 01:54:15;;;;;;;;;49.75;40.75;;;;;4.65;74.58;103692.81;5071610;28;49831;-76
2022/01/18 01:56:41;;;;;;;;;42.50;41.25;;;;;4.43;73.57;103648.28;5071806;28;49708;-76
2022/01/18 01:59:06;;;;;;;;;43.75;40.25;;;;;4.55;74.50;103662.44;5071130;28;49700;-76
2022/01/18 02:01:46;;;;;;;;;43.00;38.25;;;;;4.71;73.81;103692.44;5036297;28;50294;-75
2022/01/18 02:04:13;;;;;;;;;43.75;36.75;;;;;4.69;73.95;103691.38;5049659;28;49806;-75
2022/01/18 02:06:38;;;;;;;;;55.50;40.50;;;;;4.75;74.01;103691.97;5052318;28;49888;-74
2022/01/18 02:09:04;;;;;;;;;40.50;35.50;;;;;4.71;73.73;103676.81;5054531;28;49817;-76
2022/01/18 02:11:30;;;;;;;;;53.25;46.25;;;;;4.72;73.45;103670.84;5035069;28;50414;-75
2022/01/18 02:13:57;;;;;;;;;47.25;40.00;;;;;4.53;73.96;103635.34;5033608;28;49678;-76
2022/01/18 02:21:51;;;;;;;;;51.75;40.25;;;;;4.79;74.15;103681.03;5051699;28;49821;-75
2022/01/18 02:24:19;;;;;;;;;42.25;32.50;;;;;4.73;73.92;103675.25;5051593;28;49803;-75
2022/01/18 02:26:44;;;;;;;;;49.75;40.00;;;;;4.56;74.20;103637.34;5051694;28;49781;-76
2022/01/18 02:29:11;;;;;;;;;40.50;37.25;;;;;4.69;74.30;103662.75;5046207;27;52627;-75
2022/01/18 02:31:37;;;;;;;;;33.50;30.50;;;;;4.84;74.32;103677.19;5046611;28;50403;-76
2022/01/18 02:34:10;;;;;;;;;36.50;34.75;;;;;4.64;73.89;103635.44;5051164;28;49915;-75
2022/01/18 02:36:36;;;;;;;;;39.25;32.50;;;;;4.78;74.03;103663.59;5051022;28;49726;-75
2022/01/18 02:39:03;;;;;;;;;27.00;26.75;;;;;4.63;74.64;103643.97;5046494;28;51344;-76
2022/01/18 02:41:30;;;;;;;;;30.50;25.00;;;;;4.68;74.66;103663.53;5051294;28;50222;-75
2022/01/18 02:43:58;;;;;;;;;30.25;25.25;;;;;4.79;73.94;103670.63;5046316;28;49932;-75
2022/01/18 02:46:23;;;;;;;;;27.75;22.25;;;;;4.58;73.93;103639.28;5051379;28;49943;-75
2022/01/18 02:48:49;;;;;;;;;32.25;27.00;;;;;4.68;74.96;103655.72;5051177;28;49799;-75
2022/01/18 02:51:15;;;;;;;;;28.00;26.00;;;;;4.13;74.61;103567.47;5046445;28;49952;-75
2022/01/18 02:53:55;;;;;;;;;23.25;22.50;;;;;4.58;74.31;103687.81;5051416;28;50247;-76
2022/01/18 02:56:22;;;;;;;;;31.25;28.50;;;;;4.35;75.34;103656.19;5042111;28;49962;-75
2022/01/18 02:58:47;;;;;;;;;34.00;29.00;;;;;4.21;75.38;103645.41;5070082;28;50690;-75
2022/01/18 03:03:56;;;;;;;;;34.75;27.50;;;;;4.37;75.51;103646.84;5070651;28;49922;-75
2022/01/18 03:06:22;;;;;;;;;31.00;22.25;;;;;4.36;74.91;103645.00;5038863;28;50275;-75
2022/01/18 03:08:47;;;;;;;;;28.50;26.50;;;;;4.54;75.07;103689.22;5039243;28;52263;-75
2022/01/18 03:11:12;;;;;;;;;22.00;19.25;;;;;4.53;75.03;103663.97;5070407;28;49883;-75
2022/01/18 03:13:38;;;;;;;;;28.75;24.25;;;;;4.47;74.87;103658.22;5069685;28;49954;-75
2022/01/18 03:16:03;;;;;;;;;30.75;27.50;;;;;4.43;75.23;103657.78;5070717;28;49754;-75
2022/01/18 03:18:29;;;;;;;;;28.25;27.00;;;;;4.22;74.68;103625.53;5041609;28;52434;-74
2022/01/18 03:20:55;;;;;;;;;31.50;24.50;;;;;4.20;75.81;103624.47;5062642;28;49638;-75
2022/01/18 03:23:22;;;;;;;;;28.00;22.00;;;;;4.23;75.89;103640.34;5051047;28;49690;-75
2022/01/18 03:25:57;;;;;;;;;36.25;30.00;;;;;4.25;75.37;103641.44;5051017;28;49772;-75
2022/01/18 03:28:24;;;;;;;;;27.00;21.00;;;;;4.28;75.22;103627.00;5032268;28;52790;-74
2022/01/18 03:30:57;;;;;;;;;26.75;26.75;;;;;4.43;75.69;103626.56;5063115;27;49778;-75
2022/01/18 03:33:25;;;;;;;;;28.25;24.25;;;;;4.52;75.41;103619.59;5083238;27;49981;-76
2022/01/18 03:35:53;;;;;;;;;34.00;31.50;;;;;4.60;75.32;103611.72;5071902;27;49811;-75
2022/01/18 03:38:20;;;;;;;;;27.75;25.25;;;;;4.58;74.93;103594.16;5073447;27;51032;-74
2022/01/18 03:40:46;;;;;;;;;37.25;31.50;;;;;4.73;75.11;103621.56;5082956;27;49814;-75
2022/01/18 03:43:13;;;;;;;;;39.25;28.75;;;;;4.89;75.20;103632.53;5081498;27;49642;-75
2022/01/18 03:45:44;;;;;;;;;37.50;29.75;;;;;4.82;74.15;103600.63;5074284;27;49914;-74
2022/01/18 03:48:16;;;;;;;;;37.00;30.25;;;;;5.00;73.32;103630.91;5081235;27;50778;-75
2022/01/18 03:50:42;;;;;;;;;28.25;26.25;;;;;4.60;73.66;103571.78;5087690;27;49573;-74
2022/01/18 03:53:09;;;;;;;;;23.25;21.75;;;;;5.00;74.29;103636.09;5077633;27;49731;-75
2022/01/18 03:55:35;;;;;;;;;28.75;25.00;;;;;4.92;74.17;103600.66;5092942;27;50050;-75
2022/01/18 03:58:00;;;;;;;;;26.25;21.75;;;;;5.10;74.41;103624.81;5073805;27;51925;-75
2022/01/18 04:00:28;;;;;;;;;33.75;25.50;;;;;4.99;73.96;103586.50;5077174;27;49866;-75
2022/01/18 04:02:54;;;;;;;;;33.50;29.25;;;;;4.97;73.41;103575.06;5077098;27;49826;-74
2022/01/18 04:05:20;;;;;;;;;26.75;24.00;;;;;5.04;73.21;103606.06;5074419;27;49747;-74
2022/01/18 04:07:46;;;;;;;;;29.75;29.75;;;;;5.21;74.03;103636.16;5089993;27;51345;-75
2022/01/18 04:10:13;;;;;;;;;33.50;27.75;;;;;5.15;73.73;103611.44;5084588;27;49774;-75
2022/01/18 04:12:39;;;;;;;;;33.50;31.25;;;;;5.28;73.52;103631.66;5075807;27;49577;-75
2022/01/18 04:15:10;;;;;;;;;41.50;33.75;;;;;4.98;73.39;103582.09;5087091;27;49983;-75
2022/01/18 04:28:27;;;;;;;;;25.50;21.50;;;;;5.12;72.70;103610.25;5097081;27;50379;-74
2022/01/18 04:30:53;;;;;;;;;34.75;30.25;;;;;5.01;73.06;103604.06;5096447;27;49762;-76
2022/01/18 04:33:19;;;;;;;;;37.25;35.50;;;;;5.06;72.73;103640.97;5098929;27;49916;-75
2022/01/18 04:35:44;;;;;;;;;28.00;26.00;;;;;5.02;72.89;103629.38;5098795;27;49529;-75
2022/01/18 04:38:10;;;;;;;;;34.00;29.25;;;;;5.04;73.53;103638.22;5092210;27;51948;-76
2022/01/18 04:40:39;;;;;;;;;40.25;32.25;;;;;4.97;73.95;103614.09;5093988;27;50087;-75
2022/01/18 04:48:27;;;;;;;;;44.00;34.50;;;;;4.93;73.51;103572.97;5093061;27;50006;-75
2022/01/18 04:50:57;;;;;;;;;36.50;31.00;;;;;5.15;72.97;103613.13;5092861;27;49657;-75
2022/01/18 04:53:23;;;;;;;;;40.50;31.00;;;;;5.17;72.84;103609.88;5093128;27;49926;-75
2022/01/18 04:55:54;;;;;;;;;27.75;24.75;;;;;5.24;73.75;103615.63;5092002;27;49878;-76
2022/01/18 04:58:20;;;;;;;;;34.25;33.50;;;;;5.36;72.98;103632.31;5091825;27;50082;-75
2022/01/18 05:00:46;;;;;;;;;35.50;29.50;;;;;5.32;72.95;103627.63;5092870;27;49591;-74
2022/01/18 05:03:11;;;;;;;;;32.75;30.50;;;;;5.28;72.30;103610.81;5073703;27;49755;-75
2022/01/18 05:05:37;;;;;;;;;37.50;28.75;;;;;5.14;72.84;103613.91;5090534;27;50125;-74
2022/01/18 05:08:05;;;;;;;;;39.50;36.50;;;;;5.13;72.86;103601.66;5092362;27;50770;-75
2022/01/18 05:10:31;;;;;;;;;39.50;34.50;;;;;3.72;73.14;103346.34;5092759;27;49719;-76
2022/01/18 05:12:59;;;;;;;;;28.00;24.50;;;;;5.30;72.96;103622.25;5091579;27;49818;-76
2022/01/18 05:21:08;;;;;;;;;45.50;37.00;;;;;5.23;72.77;103601.69;5092442;27;50419;-75
2022/01/18 05:23:29;;;;;;;;;40.25;32.00;;;;;5.27;72.80;103606.38;5092656;27;49831;-75
2022/01/18 05:25:58;;;;;;;;;47.75;37.50;;;;;5.11;72.79;103571.94;5092747;27;49959;-75
2022/01/18 05:28:23;;;;;;;;;47.00;36.00;;;;;5.35;72.36;103609.66;5092009;27;52489;-75
2022/01/18 05:30:48;;;;;;;;;38.50;37.75;;;;;5.26;73.05;103594.13;5075232;27;49852;-75
2022/01/18 05:33:14;;;;;;;;;37.00;34.25;;;;;5.30;72.98;103616.16;5071919;28;50393;-75
2022/01/18 05:35:39;;;;;;;;;36.00;30.00;;;;;5.15;71.95;103607.91;5078904;28;49625;-76
2022/01/18 05:38:06;;;;;;;;;31.25;27.00;;;;;5.07;72.78;103606.31;5071508;28;50142;-75
2022/01/18 05:40:31;;;;;;;;;31.75;24.00;;;;;4.83;72.80;103582.56;5077106;28;49728;-75
2022/01/18 05:42:57;;;;;;;;;34.50;29.00;;;;;4.74;73.46;103589.56;5055954;28;49891;-76
2022/01/18 05:45:22;;;;;;;;;40.75;29.75;;;;;4.78;72.88;103593.31;5062471;28;50007;-75
2022/01/18 05:47:48;;;;;;;;;27.00;23.75;;;;;4.68;73.61;103585.47;5052311;28;50443;-75
2022/01/18 05:50:13;;;;;;;;;34.75;30.25;;;;;4.86;73.88;103610.53;5051961;28;49977;-75
2022/01/18 05:52:40;;;;;;;;;36.50;29.00;;;;;4.69;73.72;103603.81;5053514;28;49701;-76
2022/01/18 05:55:07;;;;;;;;;26.75;24.25;;;;;4.47;73.68;103572.38;5053933;28;50112;-75
2022/01/18 05:57:33;;;;;;;;;23.75;20.75;;;;;4.42;73.21;103597.03;5051044;28;51697;-75
2022/01/18 06:00:05;;;;;;;;;35.50;28.25;;;;;4.44;73.78;103612.78;5053213;28;49679;-75
2022/01/18 06:08:04;;;;;;;;;19.75;17.50;;;;;4.06;74.43;103572.91;5025522;28;49875;-76
2022/01/18 06:10:29;;;;;;;;;30.75;24.00;;;;;4.05;74.73;103568.44;5033060;28;49719;-76
2022/01/18 06:12:54;;;;;;;;;26.50;20.25;;;;;3.98;74.65;103565.31;5053702;28;49746;-76
2022/01/18 06:15:20;;;;;;;;;25.25;23.00;;;;;3.80;74.95;103540.22;5071584;28;49755;-76
2022/01/18 06:17:46;;;;;;;;;31.75;28.50;;;;;4.33;75.77;103617.00;5074112;28;49760;-75
2022/01/18 06:20:12;;;;;;;;;27.25;25.25;;;;;4.46;74.87;103621.66;5052894;28;50004;-76
2022/01/18 06:22:37;;;;;;;;;25.00;21.50;;;;;4.19;74.85;103587.16;5074124;28;49704;-76
2022/01/18 06:25:05;;;;;;;;;22.75;22.75;;;;;4.48;74.61;103643.53;5074331;28;49993;-76
2022/01/18 06:27:31;;;;;;;;;23.50;19.00;;;;;4.30;73.55;103608.94;5075840;28;51151;-76
2022/01/18 06:29:56;;;;;;;;;21.25;19.25;;;;;4.31;74.68;103602.97;5068377;27;49774;-84
2022/01/18 06:32:22;;;;;;;;;25.25;24.00;;;;;4.53;73.78;103634.44;5053186;28;49633;-75
2022/01/18 06:34:47;;;;;;;;;26.75;22.25;;;;;4.57;74.09;103647.88;5051387;28;50045;-72
2022/01/18 06:37:13;;;;;;;;;25.50;20.75;;;;;4.65;73.76;103639.84;5051291;28;50503;-68
2022/01/18 06:39:38;;;;;;;;;27.75;24.00;;;;;4.46;73.71;103603.44;5052569;28;49871;-69
2022/01/18 06:42:04;;;;;;;;;31.00;21.25;;;;;4.60;73.59;103631.63;5051382;28;50365;-69
2022/01/18 06:44:30;;;;;;;;;31.50;23.75;;;;;4.28;73.63;103561.09;5033444;28;50176;-69
2022/01/18 06:46:55;;;;;;;;;20.50;17.25;;;;;4.56;73.85;103616.50;5051151;28;49796;-73
2022/01/18 06:49:21;;;;;;;;;31.75;28.75;;;;;4.69;73.22;103624.66;5051237;28;49818;-69
2022/01/18 06:51:46;;;;;;;;;27.75;23.50;;;;;4.74;74.19;103639.00;5051088;28;50030;-69
2022/01/18 06:54:15;;;;;;;;;26.50;25.75;;;;;4.82;73.46;103635.38;5051243;28;50047;-69
2022/01/18 06:56:44;;;;;;;;;34.00;25.25;;;;;4.76;72.91;103621.81;5032846;28;51504;-72
2022/01/18 06:59:10;;;;;;;;;29.25;26.00;;;;;4.86;74.09;103634.88;5032922;28;49738;-72
2022/01/18 07:01:35;;;;;;;;;31.50;25.00;;;;;4.84;73.27;103622.53;5032868;28;49883;-72
2022/01/18 07:04:00;;;;;;;;;34.25;28.25;;;;;4.96;73.40;103636.63;5051425;28;49867;-70
2022/01/18 07:06:26;;;;;;;;;32.00;28.50;;;;;4.96;73.72;103636.63;5048440;28;56350;-73
2022/01/18 07:08:52;;;;;;;;;33.25;30.00;;;;;4.92;73.38;103625.78;5049439;28;49750;-72
2022/01/18 07:11:17;;;;;;;;;42.00;33.75;;;;;5.01;73.27;103650.03;5051075;28;49712;-78
2022/01/18 07:13:42;;;;;;;;;33.50;28.75;;;;;5.06;72.72;103651.38;5049163;28;50001;-62
2022/01/18 07:16:08;;;;;;;;;32.25;29.75;;;;;5.04;72.33;103625.19;5053512;28;49894;-71
2022/01/18 07:18:34;;;;;;;;;31.50;28.25;;;;;5.04;72.74;103632.09;5062183;28;49735;-60
2022/01/18 07:20:59;;;;;;;;;35.50;32.25;;;;;4.83;71.88;103597.28;5069810;28;50217;-61
2022/01/18 07:23:25;;;;;;;;;27.75;26.25;;;;;4.80;72.98;103600.50;5070278;28;49776;-61
2022/01/18 07:25:52;;;;;;;;;35.00;31.25;;;;;4.96;72.47;103630.50;5070285;28;50261;-61
2022/01/18 07:28:18;;;;;;;;;22.00;18.50;;;;;4.69;73.01;103584.69;5069908;28;49917;-63
2022/01/18 07:30:44;;;;;;;;;42.75;37.50;;;;;4.78;72.87;103624.56;5071637;27;49816;-65
2022/01/18 07:33:12;;;;;;;;;34.25;30.00;;;;;4.56;73.04;103591.41;5070337;28;49773;-66
2022/01/18 07:35:38;;;;;;;;;36.00;31.00;;;;;4.63;73.73;103615.34;5069780;28;51002;-71
2022/01/18 07:38:05;;;;;;;;;41.75;32.75;;;;;4.59;73.97;103614.19;5070074;28;49767;-64
2022/01/18 07:40:32;;;;;;;;;36.00;32.25;;;;;4.45;73.80;103586.94;5032431;28;49741;-65
2022/01/18 07:43:00;;;;;;;;;39.75;36.50;;;;;3.91;74.37;103497.03;5057102;28;49773;-65
2022/01/18 07:45:27;;;;;;;;;31.25;31.25;;;;;4.35;74.41;103586.88;5050359;28;50866;-65
2022/01/18 07:47:52;;;;;;;;;41.75;36.50;;;;;4.42;74.68;103611.72;5050526;28;49663;-65
2022/01/18 07:50:18;;;;;;;;;35.75;28.00;;;;;4.24;74.49;103584.97;5050533;28;49881;-64
2022/01/18 07:52:43;;;;;;;;;34.75;34.00;;;;;4.26;74.80;103612.03;5050521;28;49840;-64
2022/01/18 07:55:09;;;;;;;;;35.00;30.50;;;;;4.30;75.07;103614.13;5050168;28;49838;-65
2022/01/18 07:57:36;;;;;;;;;31.50;30.75;;;;;4.30;75.00;103599.44;5050376;28;49710;-62
2022/01/18 08:00:03;;;;;;;;;49.25;37.25;;;;;4.23;74.33;103572.72;5050917;28;49850;-68
2022/01/18 08:02:28;;;;;;;;;31.50;29.00;;;;;4.37;74.26;103579.22;5050393;28;50015;-61
2022/01/18 08:04:54;;;;;;;;;37.75;34.00;;;;;4.42;74.59;103588.31;5050002;28;50860;-65
2022/01/18 08:07:19;;;;;;;;;34.00;27.50;;;;;4.32;74.07;103551.06;5048466;28;49684;-70
2022/01/18 08:09:44;;;;;;;;;32.50;31.00;;;;;4.40;74.16;103569.06;5053229;28;49831;-61
2022/01/18 08:12:10;;;;;;;;;43.50;35.50;;;;;4.57;74.60;103577.63;5045162;28;49682;-68
2022/01/18 08:14:35;;;;;;;;;47.00;32.50;;;;;3.93;73.90;103462.59;5045435;28;50475;-63
2022/01/18 08:17:06;;;;;;;;;39.00;31.00;;;;;4.77;73.55;103595.03;5049928;28;49890;-61
2022/01/18 08:19:34;;;;;;;;;39.25;36.25;;;;;4.76;73.51;103602.69;5044956;28;49772;-62
2022/01/18 08:22:00;;;;;;;;;30.50;26.50;;;;;4.71;73.55;103593.53;5050250;28;49808;-61
2022/01/18 08:24:26;;;;;;;;;38.50;36.75;;;;;4.75;73.30;103595.66;5056485;28;50508;-60
2022/01/18 08:26:52;;;;;;;;;35.50;32.00;;;;;4.70;73.14;103582.22;5046025;28;49826;-59
2022/01/18 08:29:17;;;;;;;;;40.00;35.25;;;;;4.72;73.52;103610.97;5055320;28;49619;-60
2022/01/18 08:31:44;;;;;;;;;41.25;33.00;;;;;4.63;73.78;103576.34;5057743;28;49711;-60
2022/01/18 08:34:09;;;;;;;;;35.75;33.00;;;;;4.76;73.09;103589.69;5059646;28;50921;-60
2022/01/18 08:36:35;;;;;;;;;44.25;37.00;;;;;4.73;72.95;103576.38;5057740;28;49854;-65
2022/01/18 08:39:02;;;;;;;;;37.00;35.00;;;;;4.84;73.25;103589.59;5056389;28;49618;-64
2022/01/18 08:41:28;;;;;;;;;36.50;27.75;;;;;4.96;73.57;103607.97;5057733;28;49609;-62
2022/01/18 08:43:53;;;;;;;;;44.50;39.25;;;;;4.80;72.46;103574.47;5062585;28;50665;-60
2022/01/18 08:46:20;;;;;;;;;38.00;34.00;;;;;4.78;71.88;103593.31;5074657;28;49800;-60
2022/01/18 08:48:45;;;;;;;;;58.50;42.50;;;;;4.81;73.07;103591.91;5068612;28;49542;-60
2022/01/18 08:51:11;;;;;;;;;49.50;42.25;;;;;4.69;73.30;103575.19;5075840;28;50079;-60
2022/01/18 08:53:38;;;;;;;;;59.00;45.25;;;;;4.85;72.48;103588.81;5074617;28;50816;-61
2022/01/18 08:56:05;;;;;;;;;60.25;47.75;;;;;4.93;72.63;103596.41;5073280;28;49819;-60
2022/01/18 08:58:31;;;;;;;;;55.25;45.75;;;;;4.98;72.94;103593.41;5076913;28;49882;-60
2022/01/18 09:00:57;;;;;;;;;44.75;40.75;;;;;5.02;71.59;103605.94;5069942;28;49831;-59
2022/01/18 09:03:23;;;;;;;;;58.50;48.25;;;;;5.01;72.81;103597.97;5061493;28;50503;-65
2022/01/18 09:05:49;;;;;;;;;59.50;47.50;;;;;5.05;71.80;103602.69;5053847;28;49993;-75
2022/01/18 09:08:14;;;;;;;;;61.00;46.25;;;;;5.05;72.89;103598.38;5065751;28;49964;-61
2022/01/18 09:10:41;;;;;;;;;59.75;45.50;;;;;5.15;72.19;103606.22;5072286;28;49744;-61
2022/01/18 09:13:06;;;;;;;;;60.50;51.50;;;;;4.99;72.20;103578.69;5071844;28;50528;-61
2022/01/18 09:15:32;;;;;;;;;65.50;51.75;;;;;5.08;71.79;103589.91;5071970;28;49901;-64
2022/01/18 09:17:57;;;;;;;;;69.00;56.50;;;;;5.15;72.48;103608.81;5072331;28;49789;-61
2022/01/18 09:20:24;;;;;;;;;60.25;51.25;;;;;5.22;71.78;103604.16;5072080;28;49779;-61
2022/01/18 09:22:52;;;;;;;;;59.50;47.50;;;;;5.16;71.66;103591.50;5071917;28;49814;-61
2022/01/18 09:25:23;;;;;;;;;59.25;45.75;;;;;5.30;71.77;103596.22;5074618;28;49828;-62
2022/01/18 09:27:49;;;;;;;;;52.25;43.75;;;;;5.31;71.45;103591.94;5072092;28;49856;-63
2022/01/18 09:30:15;;;;;;;;;56.00;47.50;;;;;5.46;71.26;103606.28;5083205;27;49689;-66
2022/01/18 09:32:42;;;;;;;;;54.50;47.00;;;;;5.44;71.14;103590.53;5073593;28;50487;-67
2022/01/18 09:35:08;;;;;;;;;48.75;42.50;;;;;5.52;71.34;103601.63;5052781;28;49646;-61
2022/01/18 09:37:33;;;;;;;;;62.50;49.75;;;;;5.59;70.86;103598.75;5052324;28;49802;-63
2022/01/18 09:39:59;;;;;;;;;76.50;60.75;;;;;5.51;70.83;103573.75;5058072;28;49792;-67
2022/01/18 09:42:32;;;;;;;;;72.50;57.00;;;;;5.14;70.45;103502.84;5052283;28;49749;-63
2022/01/18 09:45:00;;;;;;;;;72.75;58.50;;;;;5.59;70.78;103580.50;5051221;28;49899;-62
2022/01/18 09:47:25;;;;;;;;;69.50;53.00;;;;;5.62;70.55;103569.44;5046003;28;49828;-63
2022/01/18 09:49:51;;;;;;;;;82.33;65.67;;;;;5.78;71.34;103590.81;5051667;28;49840;-63
2022/01/18 09:52:17;;;;;;;;;81.25;60.50;;;;;5.70;71.11;103568.41;5051135;28;50721;-63
2022/01/18 09:54:43;;;;;;;;;66.00;55.50;;;;;5.71;71.53;103550.28;5051331;28;49863;-64
2022/01/18 09:57:08;;;;;;;;;61.25;50.00;;;;;5.78;71.40;103559.53;5051355;28;49791;-63
2022/01/18 09:59:34;;;;;;;;;55.25;45.00;;;;;5.99;72.01;103582.25;5051795;28;49874;-63
2022/01/18 10:02:01;;;;;;;;;40.50;37.25;;;;;5.71;72.47;103528.53;5051913;28;50826;-63
2022/01/18 10:04:31;;;;;;;;;53.50;44.75;;;;;6.08;72.56;103573.34;5051824;28;49587;-63
2022/01/18 10:06:57;;;;;;;;;58.00;44.75;;;;;6.11;72.67;103558.88;5047950;28;49752;-64
2022/01/18 10:09:24;;;;;;;;;48.75;39.75;;;;;6.00;72.77;103542.34;5051425;28;49844;-64
2022/01/18 10:12:07;;;;;;;;;51.00;42.25;;;;;6.36;72.83;103592.22;5050924;28;49964;-64
2022/01/18 10:14:34;;;;;;;;;51.25;42.50;;;;;6.37;73.23;103581.94;5051528;28;49747;-64
2022/01/18 10:17:00;;;;;;;;;55.25;42.75;;;;;6.37;72.69;103580.97;5051686;28;49722;-64
2022/01/18 10:19:37;;;;;;;;;51.75;40.50;;;;;6.43;72.75;103578.91;5052273;28;49779;-64
2022/01/18 10:22:23;;;;;;;;;40.25;34.25;;;;;6.48;73.10;103580.19;5051717;28;50062;-64
2022/01/18 10:24:49;;;;;;;;;38.25;36.00;;;;;6.50;72.74;103568.19;5051547;28;49810;-65
2022/01/18 10:27:14;;;;;;;;;44.75;38.75;;;;;6.39;73.34;103528.16;5051348;28;49792;-71
2022/01/18 10:29:44;;;;;;;;;45.25;34.75;;;;;6.64;73.01;103556.25;5056596;27;50616;-64
2022/01/18 10:32:21;;;;;;;;;58.25;45.25;;;;;6.54;73.19;103536.31;5072024;27;50608;-64
2022/01/18 10:37:19;;;;;;;;;42.25;38.50;;;;;6.83;72.67;103551.72;5091117;27;49872;-64
2022/01/18 10:39:49;;;;;;;;;42.75;33.25;;;;;6.80;73.14;103527.97;5076565;27;49806;-64
2022/01/18 10:42:25;;;;;;;;;39.75;35.25;;;;;6.70;72.48;103483.66;5090522;27;50660;-63
2022/01/18 10:45:14;;;;;;;;;53.25;39.75;;;;;6.79;72.76;103487.91;5091183;27;49982;-64
2022/01/18 10:47:57;;;;;;;;;45.00;34.75;;;;;6.42;72.91;103413.59;5090798;27;49647;-64
2022/01/18 10:50:24;;;;;;;;;42.75;32.00;;;;;6.91;72.54;103495.78;5091141;27;49772;-69
2022/01/18 10:52:52;;;;;;;;;40.00;34.25;;;;;6.95;72.86;103492.66;5076173;27;52797;-64
2022/01/18 10:55:24;;;;;;;;;37.50;35.75;;;;;6.94;72.64;103484.66;5076074;27;50018;-65
2022/01/18 10:57:51;;;;;;;;;43.00;32.50;;;;;7.03;72.33;103474.94;5090191;27;49712;-64
2022/01/18 11:00:22;;;;;;;;;41.75;39.50;;;;;7.23;72.24;103503.53;5090918;27;50031;-63
2022/01/18 11:02:53;;;;;;;;;38.50;36.00;;;;;7.07;72.01;103467.50;5090882;27;51828;-64
2022/01/18 11:05:20;;;;;;;;;40.00;32.00;;;;;7.28;72.89;103488.25;5090939;27;49935;-64
2022/01/18 11:07:48;;;;;;;;;35.25;30.25;;;;;7.23;72.44;103448.66;5089222;27;49831;-67
2022/01/18 11:10:15;;;;;;;;;38.25;33.25;;;;;7.46;72.73;103474.88;5090768;27;49796;-65
2022/01/18 11:13:05;;;;;;;;;38.00;33.75;;;;;7.40;72.25;103450.88;5089986;27;50850;-64
2022/01/18 11:15:37;;;;;;;;;34.50;29.25;;;;;7.60;72.06;103475.00;5090729;27;49716;-64
2022/01/18 11:18:08;;;;;;;;;24.25;23.50;;;;;7.65;71.66;103456.28;5090520;27;49856;-64
2022/01/18 11:20:37;;;;;;;;;23.00;20.75;;;;;7.81;71.24;103460.03;5090479;27;49801;-63
2022/01/18 11:23:05;;;;;;;;;34.75;29.75;;;;;7.90;70.72;103445.03;5090173;27;51002;-64
2022/01/18 11:25:31;;;;;;;;;24.00;21.00;;;;;7.96;71.11;103443.78;5090397;27;49747;-64
2022/01/18 11:27:58;;;;;;;;;26.75;22.50;;;;;7.84;70.50;103407.97;5069719;27;49954;-64
2022/01/18 11:30:27;;;;;;;;;21.00;17.00;;;;;8.09;69.71;103429.88;5088724;27;50164;-64
2022/01/18 11:32:55;;;;;;;;;29.50;25.75;;;;;8.13;69.22;103433.66;5070912;27;49943;-64
2022/01/18 11:35:42;;;;;;;;;22.00;17.00;;;;;8.17;69.01;103422.59;5070843;27;49942;-64
2022/01/18 11:38:13;;;;;;;;;20.25;16.50;;;;;8.19;69.38;103419.28;5070927;27;49914;-64
2022/01/18 11:40:50;;;;;;;;;26.50;24.75;;;;;8.17;69.25;103407.81;5071395;27;49894;-64
2022/01/18 11:43:34;;;;;;;;;26.25;21.75;;;;;7.95;68.65;103354.75;5082569;27;51150;-64
2022/01/18 11:45:59;;;;;;;;;28.00;25.00;;;;;8.11;68.96;103362.91;5070722;27;49783;-65
2022/01/18 11:48:25;;;;;;;;;25.75;24.50;;;;;8.26;68.32;103374.47;5070678;27;49854;-65
2022/01/18 11:51:05;;;;;;;;;27.75;24.25;;;;;8.38;69.20;103381.41;5070835;27;49636;-65
2022/01/18 11:53:54;;;;;;;;;14.50;9.50;;;;;8.33;68.92;103361.03;5070348;27;49769;-64
2022/01/18 11:56:37;;;;;;;;;26.75;24.50;;;;;8.45;67.55;103363.63;5070373;27;49774;-65
2022/01/18 11:59:19;;;;;;;;;16.00;14.50;;;;;8.12;66.27;103294.09;5070653;27;49887;-66
2022/01/18 12:01:56;;;;;;;;;17.25;16.50;;;;;8.57;66.38;103382.81;5070668;27;50103;-66
2022/01/18 12:05:01;;;;;;;;;16.00;13.00;;;;;8.74;66.56;103381.38;5070253;27;50972;-66
2022/01/18 12:07:32;;;;;;;;;17.75;16.25;;;;;8.71;67.33;103377.66;5084747;27;49619;-67
2022/01/18 12:09:57;;;;;;;;;13.25;13.25;;;;;8.68;65.65;103340.75;5087685;27;49705;-65
2022/01/18 12:12:46;;;;;;;;;12.75;10.25;;;;;8.71;64.58;103339.28;5093287;27;49733;-77
2022/01/18 12:15:18;;;;;;;;;17.00;11.00;;;;;8.92;63.93;103354.66;5091788;27;52179;-65
2022/01/18 12:17:49;;;;;;;;;13.25;13.25;;;;;8.94;63.97;103359.19;5093328;27;49644;-66
2022/01/18 12:21:13;;;;;;;;;18.00;17.75;;;;;8.85;64.90;103330.66;5093913;27;49959;-66
2022/01/18 12:23:43;;;;;;;;;21.00;17.50;;;;;9.04;64.56;103347.63;5057234;27;50828;-65
2022/01/18 12:31:54;;;;;;;;;12.25;9.75;;;;;9.01;63.68;103330.00;5073564;27;49768;-65
2022/01/18 12:34:29;;;;;;;;;10.50;8.50;;;;;8.94;63.07;103332.97;5072132;27;49605;-66
2022/01/18 12:37:24;;;;;;;;;13.00;10.50;;;;;8.77;63.19;103283.78;5073330;27;50702;-65